Interlaken, New York
Current Conditions -  °F | °C
As of 9:56 PM on Thursday 27 Nov 2014 (Local Time) from KITH Reporting Station
Overcast Overcast  
Wind Chill: 27°   Ceiling: 1400
Heat Index: 27°   Visibility: 10mi
Dew Point: 24°   Wind: 0mph
Humidity: 88%   Direction: NA
Pressure: 30.05"   Gusts: NA
Location:  42.62°N, 76.72°W
Report Text: KITH 280256Z 00000KT 10SM BKN014 OVC021 M03/M04 A3005 RMK AO2 53002 60001 T10271044 SNB22E37 P0000 SLP192
Loading
Personal Weather Stations






























Interactive Weather Map New forecast layout! Learn more

10-Day Weather Forecast

Advertisements
Track Severe Weather on mobile